Time;durP1;ratioP1;P1;durP2;ratioP2;P2;SDS_P1;SDS_P2;PMS_P1;PMS_P2;Temp;Humidity;BMP_temperature;BMP_pressure;BME280_temperature;BME280_humidity;BME280_pressure;Samples;Min_cycle;Max_cycle;Signal;HPM_P1;HPM_P2
2022/05/18 00:01:42;;;;;;;2.80;2.10;;;;;;;15.34;83.80;94496.28;5011959;28;20227;-77
2022/05/18 00:04:09;;;;;;;3.58;2.75;;;;;;;15.36;83.32;94496.72;5025114;28;20205;-77
2022/05/18 00:06:36;;;;;;;3.08;2.40;;;;;;;15.34;82.69;94496.28;5021978;28;20200;-76
2022/05/18 00:09:03;;;;;;;2.97;2.38;;;;;;;15.37;82.83;94494.78;5027702;28;20217;-75
2022/05/18 00:11:32;;;;;;;8.95;3.00;;;;;;;15.35;82.96;94495.13;5022300;28;20204;-75
2022/05/18 00:14:01;;;;;;;4.03;3.15;;;;;;;15.27;83.28;94486.03;5018313;28;20224;-78
2022/05/18 00:16:28;;;;;;;5.28;2.70;;;;;;;15.30;83.35;94489.97;5019883;28;20243;-75
2022/05/18 00:18:56;;;;;;;2.53;2.00;;;;;;;15.31;82.79;94483.34;5025029;28;20216;-76
2022/05/18 00:21:23;;;;;;;3.22;2.47;;;;;;;15.29;83.26;94483.72;5023536;28;20208;-76
2022/05/18 00:23:50;;;;;;;2.45;1.90;;;;;;;15.39;82.20;94490.53;5017917;28;20208;-75
2022/05/18 00:26:17;;;;;;;4.22;3.08;;;;;;;15.39;82.66;94493.25;5030792;28;20223;-76
2022/05/18 00:28:44;;;;;;;3.28;2.47;;;;;;;15.49;81.78;94487.22;5031017;28;20211;-76
2022/05/18 00:31:14;;;;;;;3.08;2.35;;;;;;;15.44;82.22;94487.53;5019356;28;20197;-77
2022/05/18 00:33:41;;;;;;;4.55;2.80;;;;;;;15.40;82.66;94489.38;5024299;28;20197;-77
2022/05/18 00:36:08;;;;;;;7.38;2.70;;;;;;;15.40;82.54;94489.38;5023713;28;20231;-76
2022/05/18 00:38:35;;;;;;;5.85;2.25;;;;;;;15.31;82.17;94499.72;5030484;28;20211;-76
2022/05/18 00:41:02;;;;;;;6.85;3.03;;;;;;;15.30;83.07;94500.91;5030499;28;20319;-76
2022/05/18 00:43:41;;;;;;;3.83;2.78;;;;;;;15.27;83.17;94498.88;5024127;28;20208;-76
2022/05/18 00:46:11;;;;;;;4.25;3.10;;;;;;;15.30;82.65;94500.91;5035096;28;20243;-76
2022/05/18 00:48:39;;;;;;;4.00;2.63;;;;;;;15.27;82.81;94502.41;5021564;28;20204;-77
2022/05/18 00:51:10;;;;;;;4.40;3.03;;;;;;;15.32;82.93;94503.25;5024558;28;20224;-74
2022/05/18 00:53:42;;;;;;;6.22;3.15;;;;;;;15.26;82.63;94497.31;5011253;28;20553;-76
2022/05/18 00:56:15;;;;;;;4.35;2.95;;;;;;;15.24;82.75;94499.59;5015786;28;20216;-76
2022/05/18 00:58:47;;;;;;;4.57;3.30;;;;;;;15.27;82.58;94502.41;5031254;28;20211;-75
2022/05/18 01:01:14;;;;;;;4.32;3.15;;;;;;;15.33;82.32;94505.63;5031034;28;20223;-77
2022/05/18 01:03:46;;;;;;;5.65;3.20;;;;;;;15.31;82.39;94499.72;5017244;28;20267;-77
2022/05/18 01:06:19;;;;;;;3.72;3.05;;;;;;;15.39;81.20;94498.72;5023383;28;20216;-73
2022/05/18 01:08:51;;;;;;;5.35;3.35;;;;;;;15.38;81.56;94502.59;5024126;28;20223;-76
2022/05/18 01:11:18;;;;;;;4.40;2.88;;;;;;;15.37;81.64;94503.75;5020826;28;20652;-76
2022/05/18 01:13:45;;;;;;;4.30;2.75;;;;;;;15.39;81.46;94496.00;5017210;28;20714;-76
2022/05/18 01:16:12;;;;;;;4.28;2.60;;;;;;;15.37;81.35;94497.50;5020409;28;20221;-77
2022/05/18 01:18:40;;;;;;;4.72;3.60;;;;;;;15.31;81.56;94488.81;5023491;28;20201;-76
2022/05/18 01:21:08;;;;;;;5.32;3.30;;;;;;;15.23;82.02;94489.81;5020816;28;20228;-77
2022/05/18 01:23:47;;;;;;;3.83;2.20;;;;;;;15.15;82.68;94491.63;5020526;28;20212;-76
2022/05/18 01:26:22;;;;;;;4.55;3.20;;;;;;;15.18;82.08;94481.91;5026437;28;20304;-75
2022/05/18 01:28:53;;;;;;;2.17;1.98;;;;;;;15.29;81.47;94478.28;5033713;28;20211;-76
2022/05/18 01:31:37;;;;;;;5.25;2.63;;;;;;;15.22;82.03;94483.56;5033310;28;20208;-77
2022/05/18 01:34:05;;;;;;;3.97;2.65;;;;;;;15.23;81.97;94476.97;5024491;28;20281;-76
2022/05/18 01:36:31;;;;;;;4.63;3.08;;;;;;;15.10;82.65;94470.09;5021493;28;20687;-76
2022/05/18 01:38:59;;;;;;;3.80;2.60;;;;;;;15.10;82.74;94474.75;5034067;28;20212;-76
2022/05/18 01:41:29;;;;;;;3.42;2.60;;;;;;;15.15;82.28;94471.75;5034221;28;20236;-76
2022/05/18 01:43:59;;;;;;;3.78;3.15;;;;;;;15.11;82.83;94481.78;5034512;28;20227;-77
2022/05/18 01:46:29;;;;;;;3.58;2.25;;;;;;;15.03;82.71;94474.63;5020621;28;20240;-77
2022/05/18 01:48:56;;;;;;;4.03;2.55;;;;;;;15.01;83.14;94471.47;5034326;28;20262;-74
2022/05/18 01:51:29;;;;;;;1.85;1.60;;;;;;;15.08;82.54;94471.59;5034456;28;20200;-77
2022/05/18 01:53:56;;;;;;;3.40;2.67;;;;;;;15.01;82.74;94474.97;5021060;28;20231;-76
2022/05/18 01:56:23;;;;;;;3.28;2.47;;;;;;;14.93;83.18;94465.84;5026834;28;20229;-75
2022/05/18 01:58:50;;;;;;;3.72;2.75;;;;;;;14.93;82.88;94460.41;5027348;28;20228;-78
2022/05/18 02:01:20;;;;;;;3.35;2.47;;;;;;;14.96;81.66;94458.09;5020856;28;20200;-76
2022/05/18 02:03:47;;;;;;;3.80;2.03;;;;;;;14.97;81.84;94454.22;5028311;28;20200;-76
2022/05/18 02:06:13;;;;;;;5.93;2.75;;;;;;;14.90;82.00;94460.31;5033396;28;20227;-76
2022/05/18 02:08:42;;;;;;;2.20;1.30;;;;;;;14.94;80.94;94453.78;5020547;28;20664;-75
2022/05/18 02:11:12;;;;;;;6.43;2.85;;;;;;;14.96;80.93;94452.66;5033845;28;20208;-77
2022/05/18 02:13:39;;;;;;;2.30;2.10;;;;;;;14.87;81.28;94461.84;5033594;28;20228;-76
2022/05/18 02:16:07;;;;;;;3.03;2.22;;;;;;;14.91;80.25;94468.13;5025325;28;20263;-77
2022/05/18 02:18:35;;;;;;;2.67;1.85;;;;;;;14.96;79.65;94463.56;5027146;28;20706;-76
2022/05/18 02:21:03;;;;;;;3.20;2.05;;;;;;;14.98;79.74;94466.72;5022724;28;20224;-74
2022/05/18 02:23:30;;;;;;;4.80;1.80;;;;;;;14.95;79.86;94457.31;5020229;28;20228;-74
2022/05/18 02:25:58;;;;;;;2.67;1.95;;;;;;;14.88;80.00;94455.25;5024546;28;20204;-76
2022/05/18 02:28:25;;;;;;;2.25;1.30;;;;;;;14.88;79.39;94463.44;5026207;28;20680;-74
2022/05/18 02:30:52;;;;;;;2.80;2.00;;;;;;;15.02;78.80;94462.13;5023484;28;20323;-76
2022/05/18 02:33:19;;;;;;;3.10;1.83;;;;;;;15.00;78.98;94458.97;5019930;28;20200;-76
2022/05/18 02:35:47;;;;;;;1.70;1.45;;;;;;;15.11;78.29;94455.28;5023228;28;20201;-74
2022/05/18 02:38:14;;;;;;;1.73;1.63;;;;;;;15.27;77.55;94452.50;5030861;28;20243;-76
2022/05/18 02:40:41;;;;;;;1.92;1.58;;;;;;;15.61;75.37;94451.56;5033375;28;20224;-77
2022/05/18 02:43:08;;;;;;;4.45;2.50;;;;;;;15.73;75.43;94458.00;5021860;28;20220;-76
2022/05/18 02:45:35;;;;;;;4.75;2.45;;;;;;;15.76;75.33;94451.81;5040634;28;20228;-77
2022/05/18 02:48:02;;;;;;;2.85;2.13;;;;;;;15.71;76.16;94460.34;5027782;28;20213;-75
2022/05/18 02:50:29;;;;;;;2.75;2.00;;;;;;;15.71;76.58;94460.34;5024680;28;20216;-76
2022/05/18 02:52:57;;;;;;;2.90;2.22;;;;;;;15.72;75.99;94456.41;5019131;28;20699;-77
2022/05/18 02:58:09;;;;;;;1.08;0.73;;;;;;;15.82;75.40;94448.44;5020339;28;20831;-72
2022/05/18 03:00:36;;;;;;;4.97;2.47;;;;;;;15.87;75.48;94444.59;5032222;28;20204;-74
2022/05/18 03:03:03;;;;;;;3.20;2.33;;;;;;;15.86;76.06;94451.19;5032549;28;20663;-77
2022/05/18 03:05:30;;;;;;;0.85;0.85;;;;;;;15.85;76.29;94455.13;5019493;28;20225;-76
2022/05/18 03:07:59;;;;;;;4.93;2.47;;;;;;;15.95;75.65;94462.69;5032844;28;20200;-75
2022/05/18 03:10:26;;;;;;;2.58;1.83;;;;;;;15.95;76.12;94465.41;5032162;28;20204;-77
2022/05/18 03:12:53;;;;;;;4.03;2.55;;;;;;;15.90;76.38;94471.19;5023129;28;20225;-76
2022/05/18 03:15:20;;;;;;;4.22;2.08;;;;;;;15.95;76.20;94473.63;5025075;28;20204;-75
2022/05/18 03:17:47;;;;;;;4.13;2.47;;;;;;;16.06;75.49;94471.84;5021387;28;20236;-77
2022/05/18 03:23:33;;;;;;;3.47;2.30;;;;;;;16.08;75.99;94479.69;5032578;28;20228;-76
2022/05/18 03:25:47;;;;;;;4.22;2.78;;;;;;;16.18;75.94;94473.59;5020369;28;20191;-76
2022/05/18 03:28:14;;;;;;;4.93;3.03;;;;;;;16.19;75.59;94475.97;5031635;28;20196;-76
2022/05/18 03:30:41;;;;;;;5.22;3.08;;;;;;;16.17;76.04;94483.72;5031391;28;20211;-75
2022/05/18 03:33:07;;;;;;;8.13;3.30;;;;;;;16.20;75.96;94480.28;5019172;28;20816;-76
2022/05/18 03:35:35;;;;;;;4.03;2.90;;;;;;;16.21;75.62;94481.84;5023710;28;20201;-76
2022/05/18 03:38:05;;;;;;;6.70;4.47;;;;;;;16.31;75.76;94494.09;5025077;28;20229;-76
2022/05/18 03:40:35;;;;;;;6.60;3.00;;;;;;;16.35;76.21;94478.53;5021942;28;20248;-76
2022/05/18 03:43:02;;;;;;;5.15;3.47;;;;;;;16.45;75.75;94499.00;5027703;28;20232;-74
2022/05/18 03:45:28;;;;;;;4.95;3.22;;;;;;;16.43;75.38;94490.38;5028438;28;20228;-74
2022/05/18 03:47:55;;;;;;;5.53;3.38;;;;;;;16.46;74.73;94490.44;5030509;28;20644;-75
2022/05/18 03:50:23;;;;;;;3.05;2.03;;;;;;;16.53;74.47;94495.22;5027700;28;20253;-75
2022/05/18 03:52:49;;;;;;;5.40;3.70;;;;;;;16.50;74.77;94501.44;5026432;28;20236;-74
2022/05/18 03:55:18;;;;;;;3.58;2.47;;;;;;;16.47;74.85;94510.34;5028082;28;20539;-74
2022/05/18 03:57:44;;;;;;;6.13;2.95;;;;;;;16.50;74.97;94507.69;5026615;28;20654;-76
2022/05/18 04:00:12;;;;;;;3.22;2.17;;;;;;;16.57;74.79;94501.50;5017359;28;20209;-75
2022/05/18 04:02:40;;;;;;;7.70;3.05;;;;;;;16.54;75.15;94503.03;5021693;28;20196;-77
2022/05/18 04:05:08;;;;;;;4.70;3.08;;;;;;;16.56;74.78;94503.47;5027980;28;20275;-76
2022/05/18 04:07:35;;;;;;;11.93;2.60;;;;;;;16.52;75.24;94501.84;5019899;28;20197;-76
2022/05/18 04:10:02;;;;;;;4.28;3.03;;;;;;;16.57;75.36;94502.31;5024977;28;20247;-74
2022/05/18 04:12:31;;;;;;;5.28;3.90;;;;;;;16.60;74.87;94506.25;5028667;28;20207;-74
2022/05/18 04:14:58;;;;;;;9.73;3.08;;;;;;;16.63;74.98;94500.88;5030831;28;20595;-75
2022/05/18 04:17:26;;;;;;;5.53;4.05;;;;;;;16.69;74.23;94504.06;5026956;28;20228;-79
2022/05/18 04:19:53;;;;;;;5.20;2.83;;;;;;;16.71;74.68;94504.50;5027932;28;20306;-80
2022/05/18 04:22:20;;;;;;;4.68;3.30;;;;;;;16.69;75.10;94515.00;5030515;28;20282;-79
2022/05/18 04:24:47;;;;;;;5.90;3.45;;;;;;;16.68;75.60;94507.97;5031098;28;20196;-77
2022/05/18 04:27:14;;;;;;;5.95;3.05;;;;;;;16.61;75.87;94524.25;5028026;28;20200;-77
2022/05/18 04:29:42;;;;;;;3.45;2.30;;;;;;;16.62;76.02;94515.72;5021594;28;20189;-78
2022/05/18 04:32:11;;;;;;;5.45;3.25;;;;;;;16.66;76.75;94519.28;5018854;28;20201;-77
2022/05/18 04:34:38;;;;;;;4.80;3.15;;;;;;;16.72;76.70;94519.75;5020903;28;20205;-79
2022/05/18 04:37:05;;;;;;;4.88;3.10;;;;;;;16.82;76.62;94513.63;5025158;28;20311;-79
2022/05/18 04:39:32;;;;;;;5.70;3.70;;;;;;;16.86;76.29;94511.75;5030584;28;20240;-77
2022/05/18 04:41:59;;;;;;;4.03;3.03;;;;;;;16.82;76.27;94505.41;5017395;28;20201;-78
2022/05/18 04:44:26;;;;;;;6.80;3.40;;;;;;;16.81;77.64;94514.78;5023574;28;20207;-79
2022/05/18 04:46:58;;;;;;;6.13;3.20;;;;;;;16.78;77.43;94518.28;5020038;28;20228;-76
2022/05/18 04:49:26;;;;;;;7.10;4.00;;;;;;;16.74;77.71;94522.91;5030898;28;20193;-74
2022/05/18 04:51:54;;;;;;;5.70;3.30;;;;;;;16.71;77.70;94523.63;5021266;28;20205;-78
2022/05/18 04:54:23;;;;;;;11.25;4.88;;;;;;;16.93;78.06;94508.31;5024692;28;20205;-79
2022/05/18 04:56:50;;;;;;;6.25;3.67;;;;;;;17.13;76.03;94512.50;5021811;28;20295;-79
2022/05/18 04:59:17;;;;;;;9.68;4.15;;;;;;;17.77;76.39;94512.47;5020052;28;20230;-80
2022/05/18 05:01:44;;;;;;;7.47;4.38;;;;;;;18.31;72.98;94501.59;5023736;28;20209;-79
2022/05/18 05:04:13;;;;;;;6.15;3.53;;;;;;;19.20;69.02;94501.44;5027133;28;20203;-79
2022/05/18 05:06:43;;;;;;;4.95;3.15;;;;;;;19.47;67.75;94497.22;5025784;28;20227;-78
2022/05/18 05:09:11;;;;;;;7.53;4.63;;;;;;;19.10;68.99;94501.00;5021300;28;20576;-79
2022/05/18 05:11:37;;;;;;;6.78;4.32;;;;;;;18.17;71.10;94511.69;5030037;28;20205;-76
2022/05/18 05:14:05;;;;;;;7.80;4.65;;;;;;;17.62;73.66;94523.25;5024696;28;20869;-79
2022/05/18 05:16:32;;;;;;;4.30;2.92;;;;;;;17.33;74.87;94515.88;5033454;28;20215;-76
2022/05/18 05:19:00;;;;;;;9.75;7.30;;;;;;;17.15;75.57;94525.81;5022351;28;20224;-76
2022/05/18 05:21:28;;;;;;;8.25;5.15;;;;;;;17.08;75.94;94531.19;5027385;28;20610;-78
2022/05/18 05:23:55;;;;;;;11.57;4.97;;;;;;;16.84;77.08;94524.22;5034862;28;20200;-76
2022/05/18 05:26:22;;;;;;;8.75;4.88;;;;;;;16.75;78.36;94535.44;5032074;28;20208;-82
2022/05/18 05:28:49;;;;;;;8.77;4.95;;;;;;;16.65;77.63;94533.34;5028606;28;20196;-85
2022/05/18 05:31:15;;;;;;;10.23;7.88;;;;;;;16.69;78.20;94528.69;5032165;28;20216;-77
2022/05/18 05:33:42;;;;;;;10.30;6.30;;;;;;;16.68;79.02;94538.84;5032741;28;20613;-82
2022/05/18 05:36:10;;;;;;;9.15;5.35;;;;;;;16.62;79.09;94534.03;5025437;28;20286;-80
2022/05/18 05:38:38;;;;;;;8.23;4.88;;;;;;;16.64;79.77;94537.22;5034165;28;20228;-80
2022/05/18 05:41:05;;;;;;;8.57;4.95;;;;;;;16.54;79.69;94544.06;5022423;28;20263;-81
2022/05/18 05:43:33;;;;;;;5.25;3.33;;;;;;;16.45;78.90;94534.53;5038656;28;20919;-79
2022/05/18 05:46:02;;;;;;;12.90;5.47;;;;;;;16.43;79.60;94545.06;5038845;28;20243;-76
2022/05/18 05:48:30;;;;;;;8.43;4.75;;;;;;;16.38;80.71;94554.38;5032995;28;20216;-88
2022/05/18 05:50:58;;;;;;;8.23;4.97;;;;;;;16.30;81.39;94558.13;5033446;28;20288;-82
2022/05/18 05:53:25;;;;;;;7.82;4.65;;;;;;;16.00;82.27;94555.25;5033113;28;20223;-76
2022/05/18 05:55:54;;;;;;;8.75;4.70;;;;;;;15.84;83.16;94571.00;5034106;28;20204;-75
2022/05/18 05:58:23;;;;;;;8.50;4.70;;;;;;;15.69;84.55;94580.06;5032549;28;20707;-77
2022/05/18 06:00:50;;;;;;;11.23;5.45;;;;;;;15.63;85.48;94572.16;5030502;28;20220;-78
2022/05/18 06:03:18;;;;;;;6.72;4.35;;;;;;;15.53;85.28;94578.16;5028269;28;20204;-84
2022/05/18 06:05:45;;;;;;;11.05;4.88;;;;;;;15.51;86.79;94580.47;5031630;28;20200;-77
2022/05/18 06:08:12;;;;;;;11.18;5.43;;;;;;;15.51;87.07;94583.19;5029376;28;20224;-78
2022/05/18 06:10:39;;;;;;;8.25;5.05;;;;;;;15.47;88.09;94587.78;5028713;28;20247;-78
2022/05/18 06:13:14;;;;;;;7.82;4.90;;;;;;;15.44;88.15;94587.75;5030099;28;20207;-81
2022/05/18 06:15:42;;;;;;;8.43;5.43;;;;;;;15.45;88.34;94581.91;5026491;28;20271;-79
2022/05/18 06:18:09;;;;;;;8.48;4.90;;;;;;;15.43;89.15;94588.88;5024897;28;20236;-76
2022/05/18 06:20:36;;;;;;;8.80;4.72;;;;;;;15.37;89.14;94577.44;5030889;28;20196;-77
2022/05/18 06:23:08;;;;;;;6.95;4.20;;;;;;;15.23;89.56;94590.78;5016731;28;20212;-76
2022/05/18 06:25:36;;;;;;;9.88;5.55;;;;;;;15.24;90.31;94587.72;5032310;28;20189;-77
2022/05/18 06:28:04;;;;;;;7.57;3.78;;;;;;;15.19;90.53;94598.09;5032111;28;20204;-75
2022/05/18 06:30:32;;;;;;;8.45;3.83;;;;;;;15.12;90.08;94597.97;5019877;28;20209;-76
2022/05/18 06:32:59;;;;;;;4.10;2.60;;;;;;;15.10;90.21;94601.06;5028541;28;20254;-82
2022/05/18 06:35:26;;;;;;;7.80;3.03;;;;;;;15.14;89.92;94606.59;5032791;28;20221;-85
2022/05/18 06:37:53;;;;;;;6.03;3.38;;;;;;;15.13;90.34;94611.25;5031306;28;20650;-80
2022/05/18 06:40:20;;;;;;;5.13;3.42;;;;;;;15.20;90.07;94605.16;5025349;28;20557;-84
2022/05/18 06:42:47;;;;;;;6.57;3.83;;;;;;;15.34;89.74;94610.91;5027551;28;20314;-82
2022/05/18 06:45:15;;;;;;;6.13;3.60;;;;;;;15.39;88.81;94609.84;5021332;28;20727;-78
2022/05/18 06:47:43;;;;;;;6.05;3.47;;;;;;;15.40;89.14;94614.16;5029855;28;20228;-77
2022/05/18 06:50:11;;;;;;;7.25;3.85;;;;;;;15.45;87.85;94614.66;5021537;28;20208;-81
2022/05/18 06:52:38;;;;;;;6.88;4.18;;;;;;;15.53;87.89;94613.66;5030867;28;20721;-77
2022/05/18 06:55:05;;;;;;;4.68;3.63;;;;;;;15.61;85.59;94609.94;5024139;28;20213;-79
2022/05/18 06:57:32;;;;;;;6.15;3.45;;;;;;;15.72;86.55;94610.16;5031543;28;20570;-76
2022/05/18 06:59:59;;;;;;;6.03;4.10;;;;;;;15.74;85.63;94612.53;5031013;28;20242;-75
2022/05/18 07:02:26;;;;;;;10.48;4.55;;;;;;;15.90;85.76;94621.44;5022113;28;20285;-77
2022/05/18 07:04:55;;;;;;;9.77;4.40;;;;;;;15.96;85.10;94620.00;5027895;28;20201;-75
2022/05/18 07:07:22;;;;;;;5.65;4.30;;;;;;;15.98;84.40;94618.50;5027650;28;20566;-77
2022/05/18 07:09:49;;;;;;;6.60;3.83;;;;;;;16.06;83.85;94619.41;5025566;28;20193;-84
2022/05/18 07:12:16;;;;;;;5.95;3.72;;;;;;;16.23;82.22;94613.47;5025824;28;20192;-82
2022/05/18 07:14:43;;;;;;;7.28;4.40;;;;;;;16.49;82.65;94615.47;5031022;28;20197;-81
2022/05/18 07:17:09;;;;;;;8.15;4.35;;;;;;;16.60;81.68;94619.19;5022041;28;20221;-84
2022/05/18 07:19:37;;;;;;;6.18;4.38;;;;;;;16.68;81.61;94625.56;5026394;28;20575;-88
2022/05/18 07:22:06;;;;;;;5.60;3.38;;;;;;;16.56;81.61;94623.00;5028748;28;20200;-87
2022/05/18 07:24:32;;;;;;;7.35;4.65;;;;;;;16.63;81.08;94628.63;5024673;28;20668;-87
2022/05/18 07:26:59;;;;;;;8.40;4.55;;;;;;;16.71;80.94;94622.13;5030537;28;20212;-85
2022/05/18 07:29:26;;;;;;;7.80;4.57;;;;;;;16.68;79.95;94628.31;5021071;28;20223;-85
2022/05/18 07:32:13;;;;;;;9.48;5.40;;;;;;;16.76;80.34;94629.22;5020051;28;20213;-81
2022/05/18 07:34:41;;;;;;;6.88;4.60;;;;;;;16.82;80.39;94627.75;5026101;28;20223;-85
2022/05/18 07:37:10;;;;;;;5.90;3.97;;;;;;;16.77;80.00;94634.34;5025679;28;20207;-84
2022/05/18 07:39:38;;;;;;;10.10;5.38;;;;;;;16.80;80.37;94633.63;5028557;28;20220;-80
2022/05/18 07:42:06;;;;;;;7.65;4.70;;;;;;;16.90;80.80;94634.94;5025646;28;20306;-83
2022/05/18 07:44:34;;;;;;;10.57;4.78;;;;;;;17.00;79.82;94629.63;5032121;28;20695;-81
2022/05/18 07:47:02;;;;;;;8.27;4.05;;;;;;;16.98;78.99;94639.34;5025850;28;20295;-80
2022/05/18 07:49:33;;;;;;;8.68;4.50;;;;;;;17.37;79.21;94632.47;5028576;28;20292;-80
2022/05/18 07:52:00;;;;;;;3.63;2.55;;;;;;;17.42;77.91;94634.91;5027882;28;20542;-80
2022/05/18 07:54:28;;;;;;;9.90;7.32;;;;;;;17.32;77.41;94645.72;5030160;28;20200;-87
2022/05/18 07:56:55;;;;;;;9.05;6.70;;;;;;;17.48;78.49;94646.34;5030807;28;20208;-80
2022/05/18 07:59:22;;;;;;;7.50;6.38;;;;;;;17.45;76.97;94649.81;5019682;28;20735;-76
2022/05/18 08:01:50;;;;;;;9.45;6.65;;;;;;;17.53;77.02;94646.00;5029811;28;20208;-82
2022/05/18 08:04:17;;;;;;;13.98;6.72;;;;;;;17.63;76.19;94650.06;5030157;28;20220;-81
2022/05/18 08:06:45;;;;;;;9.68;6.45;;;;;;;17.63;76.03;94650.06;5030141;28;20289;-79
2022/05/18 08:09:11;;;;;;;6.80;4.72;;;;;;;17.83;75.31;94653.47;5030402;28;20251;-80
2022/05/18 08:17:17;;;;;;;10.23;6.35;;;;;;;18.27;73.61;94662.59;5001722;28;20283;-81
2022/05/18 08:19:44;;;;;;;6.78;5.93;;;;;;;18.48;72.61;94651.84;5023935;28;20224;-71
2022/05/18 08:22:11;;;;;;;7.97;6.35;;;;;;;18.73;72.73;94656.78;5029973;28;20204;-81
2022/05/18 08:24:40;;;;;;;7.70;5.25;;;;;;;18.75;71.77;94654.47;5029563;28;20192;-75
2022/05/18 08:27:13;;;;;;;6.25;4.20;;;;;;;18.59;72.48;94662.16;5023372;28;20205;-78
2022/05/18 08:29:40;;;;;;;7.03;5.40;;;;;;;18.37;72.03;94661.91;5026687;28;20189;-75
2022/05/18 08:32:07;;;;;;;8.52;6.15;;;;;;;18.31;72.50;94659.91;5026448;28;20266;-83
2022/05/18 08:34:34;;;;;;;7.40;3.90;;;;;;;18.40;72.25;94663.91;5029979;28;20213;-77
2022/05/18 08:37:01;;;;;;;5.78;3.75;;;;;;;18.29;71.84;94654.78;5029858;28;20262;-83
2022/05/18 08:39:28;;;;;;;6.47;5.32;;;;;;;18.44;71.50;94658.47;5027360;28;20235;-81
2022/05/18 08:41:58;;;;;;;6.85;6.13;;;;;;;18.77;71.46;94660.38;5030500;28;20208;-80
2022/05/18 08:44:31;;;;;;;7.68;5.38;;;;;;;19.55;70.33;94647.22;5036246;28;20224;-78
2022/05/18 08:47:11;;;;;;;7.22;4.10;;;;;;;19.10;69.56;94649.28;5030283;28;20327;-80
2022/05/18 08:49:43;;;;;;;7.38;3.75;;;;;;;19.13;68.91;94654.00;5012611;28;20221;-81
2022/05/18 08:52:27;;;;;;;7.78;5.72;;;;;;;18.87;69.38;94656.91;5022880;28;20207;-77
2022/05/18 08:55:13;;;;;;;8.02;5.68;;;;;;;19.28;69.63;94652.13;5020277;28;20200;-81
2022/05/18 08:57:43;;;;;;;7.47;5.07;;;;;;;20.12;65.41;94628.25;5027191;28;20223;-76
2022/05/18 09:00:16;;;;;;;10.57;5.13;;;;;;;20.21;65.20;94634.97;5029816;28;20235;-78
2022/05/18 09:02:45;;;;;;;6.15;4.97;;;;;;;20.41;64.74;94629.91;5017730;28;20224;-84
2022/05/18 09:05:17;;;;;;;6.13;5.15;;;;;;;19.83;65.59;94630.09;5018080;28;20653;-81
2022/05/18 09:07:48;;;;;;;4.95;4.45;;;;;;;19.67;65.36;94633.19;5030351;28;20602;-83
2022/05/18 09:10:26;;;;;;;5.95;5.15;;;;;;;19.94;66.64;94630.16;5016825;28;20229;-80
2022/05/18 09:12:53;;;;;;;5.32;4.80;;;;;;;20.28;64.20;94628.69;5021300;28;20220;-83
2022/05/18 09:15:34;;;;;;;8.48;4.50;;;;;;;20.31;65.56;94621.63;5013553;28;20201;-81
2022/05/18 09:18:07;;;;;;;5.30;4.68;;;;;;;20.82;63.57;94607.53;5030106;28;20188;-82
2022/05/18 09:20:43;;;;;;;4.95;4.30;;;;;;;20.29;65.03;94612.97;5016863;28;20725;-79
2022/05/18 09:23:41;;;;;;;5.88;5.28;;;;;;;20.07;65.66;94614.88;5030313;28;20754;-81
2022/05/18 09:26:26;;;;;;;7.20;5.15;;;;;;;20.61;65.09;94613.84;5025478;28;20203;-84
2022/05/18 09:29:03;;;;;;;4.72;4.05;;;;;;;20.72;63.16;94597.31;5010683;28;20225;-80
2022/05/18 09:31:52;;;;;;;4.97;4.07;;;;;;;20.81;61.65;94594.97;5025652;28;20228;-78
2022/05/18 09:34:42;;;;;;;8.20;4.70;;;;;;;20.96;61.62;94591.03;5029587;28;20200;-79
2022/05/18 09:37:27;;;;;;;4.97;4.13;;;;;;;20.87;60.68;94598.91;5025241;28;20193;-80
2022/05/18 09:40:01;;;;;;;4.55;4.07;;;;;;;21.35;60.64;94587.44;5025755;28;20227;-73
2022/05/18 09:42:34;;;;;;;5.40;4.20;;;;;;;21.45;59.68;94590.19;5021346;28;20667;-80
2022/05/18 09:45:10;;;;;;;5.05;3.83;;;;;;;21.22;61.09;94589.84;5034378;28;20188;-80
2022/05/18 09:47:54;;;;;;;4.18;3.78;;;;;;;21.27;58.37;94584.72;5020866;28;20613;-77
2022/05/18 09:50:23;;;;;;;4.38;3.92;;;;;;;21.12;58.44;94580.38;5024623;28;20790;-83
2022/05/18 09:52:53;;;;;;;4.75;3.53;;;;;;;21.07;58.98;94575.25;5031470;28;20211;-73
2022/05/18 09:55:25;;;;;;;5.32;3.65;;;;;;;20.87;59.00;94582.38;5033688;28;20735;-79
2022/05/18 09:58:01;;;;;;;4.72;3.63;;;;;;;20.28;59.94;94583.88;5026186;28;20291;-77
2022/05/18 10:00:33;;;;;;;4.20;3.40;;;;;;;19.83;60.74;94586.88;5028012;28;20698;-73
2022/05/18 10:08:52;;;;;;;3.25;2.95;;;;;;;19.41;61.91;94608.66;5027594;28;20278;-78
2022/05/18 10:11:44;;;;;;;3.38;3.05;;;;;;;19.24;63.04;94620.34;5024027;28;20540;-79
2022/05/18 10:14:17;;;;;;;5.82;3.45;;;;;;;19.17;63.05;94621.06;5020740;28;20277;-73
2022/05/18 10:16:53;;;;;;;4.63;3.13;;;;;;;19.01;63.07;94618.59;5019661;28;20572;-78
2022/05/18 10:19:31;;;;;;;4.95;3.35;;;;;;;18.90;64.56;94622.44;5022240;28;20219;-78
2022/05/18 10:22:07;;;;;;;4.35;3.33;;;;;;;18.93;65.31;94638.94;5029599;28;20200;-77
2022/05/18 10:24:42;;;;;;;3.35;3.05;;;;;;;18.86;64.50;94655.34;5017978;28;20664;-76
2022/05/18 10:27:26;;;;;;;7.47;3.75;;;;;;;18.77;65.02;94652.94;5022951;28;20639;-80
2022/05/18 10:30:16;;;;;;;3.03;2.28;;;;;;;18.38;63.98;94663.50;5024287;28;20678;-75
2022/05/18 10:32:58;;;;;;;4.18;2.97;;;;;;;18.11;66.46;94664.78;5025393;28;20189;-77
2022/05/18 10:35:51;;;;;;;4.50;2.70;;;;;;;17.24;73.85;94679.63;5031644;28;20195;-81
2022/05/18 10:38:24;;;;;;;2.63;2.17;;;;;;;16.80;76.95;94696.53;5026685;28;20197;-73
2022/05/18 10:40:58;;;;;;;2.53;1.75;;;;;;;15.88;84.43;94716.63;5027104;28;20242;-71
2022/05/18 10:43:44;;;;;;;1.27;1.00;;;;;;;15.27;86.00;94736.31;5030939;28;20189;-72
2022/05/18 10:46:18;;;;;;;4.57;2.75;;;;;;;15.01;88.22;94734.16;5030611;28;20232;-70
2022/05/18 10:48:56;;;;;;;2.38;2.00;;;;;;;14.95;88.00;94730.09;5026934;28;20199;-70
2022/05/18 10:51:43;;;;;;;2.95;2.10;;;;;;;15.00;88.75;94731.78;5027455;28;20203;-70
2022/05/18 10:54:21;;;;;;;3.08;2.30;;;;;;;15.06;89.28;94746.72;5029519;28;20212;-70
2022/05/18 10:56:50;;;;;;;2.80;2.15;;;;;;;15.07;89.52;94754.53;5028330;28;20293;-71
2022/05/18 10:59:32;;;;;;;4.45;2.13;;;;;;;15.02;89.37;94754.03;5025264;28;20264;-71
2022/05/18 11:02:11;;;;;;;10.63;1.63;;;;;;;15.06;86.88;94749.44;5028999;28;20220;-70
2022/05/18 11:04:56;;;;;;;8.85;1.98;;;;;;;15.13;85.67;94755.09;5023010;28;20208;-70
2022/05/18 11:07:31;;;;;;;2.17;1.70;;;;;;;15.20;84.04;94757.97;5027528;28;20311;-70
2022/05/18 11:10:09;;;;;;;5.57;1.55;;;;;;;15.35;85.85;94759.91;5029316;28;20285;-70
2022/05/18 11:12:49;;;;;;;3.22;2.08;;;;;;;15.52;84.22;94769.66;5018675;28;20204;-70
2022/05/18 11:15:30;;;;;;;4.82;2.10;;;;;;;15.72;86.79;94767.78;5029573;28;20227;-71
2022/05/18 11:18:12;;;;;;;2.08;1.58;;;;;;;15.95;82.60;94761.28;5030750;28;20188;-70
2022/05/18 11:20:57;;;;;;;3.08;1.60;;;;;;;16.31;81.00;94768.28;5029202;28;20208;-72
2022/05/18 11:23:41;;;;;;;1.80;1.50;;;;;;;16.45;79.54;94766.97;5026228;28;20721;-71
2022/05/18 11:26:23;;;;;;;2.90;1.80;;;;;;;16.50;79.59;94766.69;5028526;28;20266;-74
2022/05/18 11:29:06;;;;;;;1.10;0.85;;;;;;;16.38;78.76;94766.84;5030731;28;20220;-73
2022/05/18 11:32:09;;;;;;;1.00;0.90;;;;;;;16.23;79.93;94777.50;5029441;28;20220;-76
2022/05/18 11:34:52;;;;;;;1.75;0.88;;;;;;;16.32;78.46;94775.31;5014598;28;20224;-76
2022/05/18 11:38:01;;;;;;;0.77;0.70;;;;;;;16.38;78.61;94777.78;5051750;28;20196;-75
2022/05/18 11:40:42;;;;;;;2.95;1.10;;;;;;;16.53;80.04;94790.56;5006891;28;20244;-71
2022/05/18 11:43:35;;;;;;;1.58;1.30;;;;;;;16.59;80.73;94797.31;5019305;28;20202;-76
2022/05/18 11:46:29;;;;;;;1.30;1.00;;;;;;;16.45;81.60;94799.78;5027416;28;20236;-76
2022/05/18 11:49:10;;;;;;;1.80;1.33;;;;;;;16.45;82.00;94802.50;5025718;28;20196;-75
2022/05/18 11:51:51;;;;;;;1.25;0.45;;;;;;;16.08;78.96;94813.88;5022397;28;20280;-75
2022/05/18 11:54:34;;;;;;;0.50;0.40;;;;;;;15.88;77.75;94804.03;5026262;28;20231;-75
2022/05/18 11:57:26;;;;;;;0.40;0.35;;;;;;;15.75;76.71;94829.88;5025693;28;20624;-75
2022/05/18 12:00:15;;;;;;;0.38;0.38;;;;;;;15.67;75.04;94817.22;5029064;28;20224;-74
2022/05/18 12:03:09;;;;;;;0.20;0.20;;;;;;;15.71;77.03;94826.31;5025608;28;20217;-75
2022/05/18 12:06:09;;;;;;;0.68;0.60;;;;;;;15.72;77.63;94825.94;5025587;28;20254;-75
2022/05/18 12:09:01;;;;;;;0.50;0.40;;;;;;;15.76;77.39;94826.00;5023557;28;20247;-76
2022/05/18 12:11:40;;;;;;;0.35;0.35;;;;;;;15.88;76.25;94843.09;5026208;28;20348;-74